createdAt,value
2023-01-10T00:01:09.176Z,1.10
2023-01-10T00:03:37.091Z,1.13
2023-01-10T00:06:05.016Z,0.90
2023-01-10T00:08:32.934Z,1.10
2023-01-10T00:11:20.836Z,1.20
2023-01-10T00:13:49.086Z,1.23
2023-01-10T00:16:17.050Z,1.00
2023-01-10T00:18:45.020Z,1.23
2023-01-10T00:21:14.336Z,1.00
2023-01-10T00:23:43.079Z,1.00
2023-01-10T00:26:11.193Z,0.90
2023-01-10T00:28:39.487Z,1.33
2023-01-10T00:31:11.716Z,0.87
2023-01-10T00:33:40.368Z,1.10
2023-01-10T00:36:09.539Z,0.83
2023-01-10T00:38:37.851Z,0.70
2023-01-10T00:41:28.468Z,1.07
2023-01-10T00:43:58.466Z,0.83
2023-01-10T00:46:28.966Z,1.10
2023-01-10T00:48:58.197Z,0.80
2023-01-10T00:51:26.122Z,0.80
2023-01-10T00:53:54.043Z,1.10
2023-01-10T00:56:22.015Z,0.70
2023-01-10T00:58:49.921Z,0.97
2023-01-10T01:01:17.938Z,0.60
2023-01-10T01:03:47.365Z,0.90
2023-01-10T01:06:15.284Z,0.80
2023-01-10T01:08:43.202Z,0.60
2023-01-10T01:11:11.210Z,1.10
2023-01-10T01:13:39.332Z,0.80
2023-01-10T01:16:08.082Z,0.90
2023-01-10T01:18:36.047Z,0.87
2023-01-10T01:21:05.835Z,0.67
2023-01-10T01:23:35.510Z,0.80
2023-01-10T01:26:03.873Z,0.70
2023-01-10T01:28:31.788Z,1.20
2023-01-10T01:30:59.801Z,0.93
2023-01-10T01:33:27.837Z,0.50
2023-01-10T01:35:55.730Z,0.67
2023-01-10T01:38:25.003Z,0.93
2023-01-10T01:40:52.940Z,0.80
2023-01-10T01:43:25.464Z,0.80
2023-01-10T01:45:54.056Z,0.50
2023-01-10T01:48:29.437Z,0.60
2023-01-10T01:51:05.368Z,0.60
2023-01-10T01:53:38.403Z,0.60
2023-01-10T01:56:11.267Z,0.53
2023-01-10T01:58:45.145Z,0.60
2023-01-10T02:01:15.645Z,0.60
2023-01-10T02:03:46.338Z,0.63
2023-01-10T02:06:16.367Z,0.50
2023-01-10T02:08:51.915Z,0.80
2023-01-10T02:11:19.819Z,0.53
2023-01-10T02:13:48.805Z,0.50
2023-01-10T02:16:17.175Z,0.47
2023-01-10T02:18:45.611Z,0.57
2023-01-10T02:21:41.729Z,0.60
2023-01-10T02:24:54.629Z,0.53
2023-01-10T02:27:28.802Z,0.60
2023-01-10T02:30:29.525Z,0.87
2023-01-10T02:33:11.624Z,0.50
2023-01-10T02:36:09.199Z,0.40
2023-01-10T02:38:48.367Z,1.03
2023-01-10T02:41:28.051Z,0.40
2023-01-10T02:44:00.895Z,0.50
2023-01-10T02:46:31.374Z,0.43
2023-01-10T02:49:00.847Z,0.50
2023-01-10T02:51:29.793Z,0.63
2023-01-10T02:54:02.105Z,0.60
2023-01-10T02:57:14.142Z,0.50
2023-01-10T03:00:19.289Z,0.50
2023-01-10T03:03:02.792Z,0.47
2023-01-10T03:05:45.892Z,0.50
2023-01-10T03:08:23.401Z,1.23
2023-01-10T03:10:55.488Z,0.80
2023-01-10T03:13:27.710Z,0.47
2023-01-10T03:15:57.661Z,0.63
2023-01-10T03:18:31.433Z,0.60
2023-01-10T03:21:03.348Z,0.50
2023-01-10T03:23:33.594Z,1.40
2023-01-10T03:26:03.736Z,0.50
2023-01-10T03:28:34.769Z,0.50
2023-01-10T03:31:08.744Z,1.23
2023-01-10T03:33:37.928Z,0.60
2023-01-10T03:36:20.802Z,0.73
2023-01-10T03:38:53.300Z,0.50
2023-01-10T03:41:34.705Z,0.80
2023-01-10T03:44:31.128Z,0.73
2023-01-10T03:47:05.227Z,0.53
2023-01-10T03:49:36.091Z,0.77
2023-01-10T03:52:07.014Z,0.70
2023-01-10T03:54:34.982Z,0.67
2023-01-10T03:57:03.033Z,0.60
2023-01-10T03:59:31.573Z,0.60
2023-01-10T04:01:59.637Z,0.50
2023-01-10T04:04:27.823Z,1.43
2023-01-10T04:06:55.728Z,1.07
2023-01-10T04:09:25.244Z,0.67
2023-01-10T04:11:53.166Z,0.80
2023-01-10T04:14:21.091Z,0.70
2023-01-10T04:16:49.032Z,0.63
2023-01-10T04:19:16.949Z,0.97
2023-01-10T04:21:44.847Z,0.50
2023-01-10T04:24:13.107Z,1.63
2023-01-10T04:26:42.481Z,0.80
2023-01-10T04:29:10.426Z,0.70
2023-01-10T04:31:39.946Z,0.50
2023-01-10T04:34:08.062Z,0.80
2023-01-10T04:36:36.393Z,0.70
2023-01-10T04:39:05.301Z,0.60
2023-01-10T04:41:33.433Z,0.50
2023-01-10T04:44:02.735Z,0.60
2023-01-10T04:46:30.689Z,0.70
2023-01-10T04:48:59.273Z,0.60
2023-01-10T04:51:27.600Z,0.77
2023-01-10T04:53:56.075Z,0.70
2023-01-10T04:56:24.668Z,0.93
2023-01-10T04:58:54.085Z,0.60
2023-01-10T05:01:25.824Z,0.60
2023-01-10T05:03:55.016Z,1.20
2023-01-10T05:06:25.274Z,0.87
2023-01-10T05:08:53.175Z,1.23
2023-01-10T05:11:21.105Z,0.70
2023-01-10T05:13:48.979Z,0.77
2023-01-10T05:16:17.277Z,1.27
2023-01-10T05:18:46.615Z,0.50
2023-01-10T05:21:15.365Z,0.73
2023-01-10T05:23:43.509Z,0.73
2023-01-10T05:26:14.026Z,1.90
2023-01-10T05:28:42.542Z,0.80
2023-01-10T05:31:13.204Z,0.50
2023-01-10T05:33:41.131Z,1.63
2023-01-10T05:36:10.701Z,1.20
2023-01-10T05:38:38.668Z,1.23
2023-01-10T05:41:06.664Z,0.70
2023-01-10T05:43:34.603Z,0.67
2023-01-10T05:46:02.545Z,0.77
2023-01-10T05:48:30.566Z,0.90
2023-01-10T05:50:58.635Z,0.83
2023-01-10T05:53:27.963Z,1.37
2023-01-10T05:55:57.372Z,1.00
2023-01-10T05:58:26.269Z,0.53
2023-01-10T06:00:55.819Z,1.33
2023-01-10T06:03:24.885Z,0.60
2023-01-10T06:05:52.892Z,0.77
2023-01-10T06:08:20.973Z,1.00
2023-01-10T06:10:50.782Z,0.90
2023-01-10T06:13:18.780Z,1.53
2023-01-10T06:15:46.945Z,1.60
2023-01-10T06:18:15.277Z,1.67
2023-01-10T06:20:44.307Z,0.70
2023-01-10T06:23:12.308Z,1.73
2023-01-10T06:25:41.715Z,2.07
2023-01-10T06:28:12.341Z,0.90
2023-01-10T06:30:42.020Z,1.00
2023-01-10T06:33:11.478Z,0.80
2023-01-10T06:35:40.209Z,1.70
2023-01-10T06:38:08.497Z,1.00
2023-01-10T06:40:36.477Z,2.33
2023-01-10T06:43:04.348Z,1.07
2023-01-10T06:45:33.878Z,1.50
2023-01-10T06:48:01.805Z,2.77
2023-01-10T06:50:29.868Z,1.47
2023-01-10T06:52:58.652Z,1.77
2023-01-10T06:55:27.099Z,0.90
2023-01-10T06:57:57.399Z,1.40
2023-01-10T07:00:27.345Z,1.27
2023-01-10T07:02:57.256Z,1.90
2023-01-10T07:05:25.193Z,1.43
2023-01-10T07:07:53.151Z,1.27
2023-01-10T07:10:21.106Z,0.73
2023-01-10T07:12:49.038Z,1.20
2023-01-10T07:15:17.006Z,1.30
2023-01-10T07:17:44.888Z,1.37
2023-01-10T07:20:14.492Z,0.83
2023-01-10T07:22:42.449Z,1.57
2023-01-10T07:25:10.858Z,1.50
2023-01-10T07:27:43.213Z,1.17
2023-01-10T07:30:12.269Z,2.37
2023-01-10T07:32:40.162Z,1.10
2023-01-10T07:35:08.575Z,3.07
2023-01-10T07:37:37.829Z,0.90
2023-01-10T07:40:07.115Z,1.43
2023-01-10T07:42:35.020Z,1.17
2023-01-10T07:45:02.964Z,0.97
2023-01-10T07:47:30.949Z,1.03
2023-01-10T07:49:58.877Z,1.33
2023-01-10T07:52:26.866Z,2.53
2023-01-10T07:54:56.095Z,1.00
2023-01-10T07:57:24.021Z,1.07
2023-01-10T07:59:51.925Z,2.10
2023-01-10T08:02:19.950Z,1.20
2023-01-10T08:04:47.833Z,0.90
2023-01-10T08:07:15.760Z,1.30
2023-01-10T08:09:43.673Z,1.67
2023-01-10T08:12:12.958Z,1.20
2023-01-10T08:15:00.778Z,1.20
2023-01-10T08:17:28.807Z,1.90
2023-01-10T08:19:56.663Z,1.70
2023-01-10T08:22:24.575Z,1.20
2023-01-10T08:24:53.051Z,1.20
2023-01-10T08:27:22.341Z,1.13
2023-01-10T08:29:50.212Z,1.20
2023-01-10T08:32:18.660Z,1.43
2023-01-10T08:34:46.702Z,2.10
2023-01-10T08:37:14.825Z,1.27
2023-01-10T08:39:42.693Z,2.23
2023-01-10T08:42:10.700Z,1.23
2023-01-10T08:45:00.945Z,2.17
2023-01-10T08:47:29.570Z,2.10
2023-01-10T08:49:57.456Z,1.30
2023-01-10T08:52:25.365Z,1.10
2023-01-10T08:54:53.302Z,2.10
2023-01-10T08:57:21.226Z,1.73
2023-01-10T08:59:49.152Z,1.87
2023-01-10T09:02:18.471Z,1.67
2023-01-10T09:04:46.362Z,2.00
2023-01-10T09:07:14.234Z,1.50
2023-01-10T09:09:42.166Z,1.47
2023-01-10T09:12:24.028Z,1.87
2023-01-10T09:15:06.693Z,3.17
2023-01-10T09:17:36.017Z,1.60
2023-01-10T09:20:06.248Z,1.30
2023-01-10T09:22:34.175Z,1.53
2023-01-10T09:25:02.078Z,2.00
2023-01-10T09:27:30.030Z,1.77
2023-01-10T09:29:57.919Z,1.17
2023-01-10T09:32:25.858Z,2.13
2023-01-10T09:34:55.148Z,1.43
2023-01-10T09:37:23.075Z,1.20
2023-01-10T09:39:52.617Z,1.00
2023-01-10T09:42:41.755Z,1.60
2023-01-10T09:45:17.862Z,1.93
2023-01-10T09:47:54.185Z,2.10
2023-01-10T09:50:31.008Z,0.80
2023-01-10T09:53:04.545Z,1.17
2023-01-10T09:55:34.739Z,2.17
2023-01-10T09:58:07.754Z,1.80
2023-01-10T10:00:40.568Z,1.00
2023-01-10T10:03:20.035Z,1.53
2023-01-10T10:05:50.530Z,2.07
2023-01-10T10:08:21.049Z,1.60
2023-01-10T10:10:59.989Z,2.00
2023-01-10T10:13:41.787Z,2.20
2023-01-10T10:16:19.915Z,1.50
2023-01-10T10:18:58.346Z,1.37
2023-01-10T10:21:35.582Z,1.30
2023-01-10T10:24:23.064Z,1.33
2023-01-10T10:26:57.950Z,1.63
2023-01-10T10:29:44.221Z,1.40
2023-01-10T10:32:32.193Z,1.50
2023-01-10T10:35:04.568Z,1.33
2023-01-10T10:37:39.414Z,1.60
2023-01-10T10:40:16.652Z,1.97
2023-01-10T10:42:48.378Z,2.17
2023-01-10T10:45:21.211Z,1.50
2023-01-10T10:47:54.752Z,1.50
2023-01-10T10:50:29.651Z,2.10
2023-01-10T10:53:01.727Z,1.20
2023-01-10T10:55:32.344Z,1.50
2023-01-10T10:58:01.193Z,1.30
2023-01-10T11:00:30.421Z,1.40
2023-01-10T11:03:04.333Z,0.90
2023-01-10T11:05:37.445Z,1.23
2023-01-10T11:08:10.908Z,1.57
2023-01-10T11:10:40.268Z,1.40
2023-01-10T11:13:18.652Z,2.50
2023-01-10T11:15:48.430Z,2.13
2023-01-10T11:18:18.464Z,2.20
2023-01-10T11:20:57.861Z,1.90
2023-01-10T11:23:37.816Z,1.30
2023-01-10T11:26:07.685Z,1.20
2023-01-10T11:28:35.985Z,1.70
2023-01-10T11:31:05.198Z,0.97
2023-01-10T11:33:36.242Z,1.37
2023-01-10T11:36:06.870Z,1.33
2023-01-10T11:38:36.731Z,1.23
2023-01-10T11:41:06.159Z,1.23
2023-01-10T11:43:36.200Z,2.90
2023-01-10T11:46:06.200Z,1.50
2023-01-10T11:51:38.185Z,1.60
2023-01-10T11:54:12.969Z,1.87
2023-01-10T11:56:43.212Z,4.40
2023-01-10T11:59:15.161Z,4.03
2023-01-10T12:01:46.333Z,1.13
2023-01-10T12:04:17.863Z,2.20
2023-01-10T12:06:51.699Z,2.13
2023-01-10T12:09:36.071Z,1.63
2023-01-10T12:12:05.657Z,1.40
2023-01-10T12:14:33.772Z,1.47
2023-01-10T12:17:04.011Z,1.00
2023-01-10T12:19:32.270Z,1.70
2023-01-10T12:22:03.375Z,1.23
2023-01-10T12:24:36.531Z,2.03
2023-01-10T12:27:06.058Z,1.37
2023-01-10T12:29:36.338Z,1.07
2023-01-10T12:32:07.948Z,1.30
2023-01-10T12:34:42.809Z,1.60
2023-01-10T12:37:18.504Z,0.90
2023-01-10T12:39:52.969Z,1.50
2023-01-10T12:42:53.878Z,1.87
2023-01-10T12:45:27.376Z,1.33
2023-01-10T12:48:00.991Z,1.47
2023-01-10T12:50:32.726Z,0.70
2023-01-10T12:53:05.257Z,1.60
2023-01-10T12:55:40.716Z,1.93
2023-01-10T12:58:17.620Z,1.70
2023-01-10T13:00:50.837Z,1.70
2023-01-10T13:03:22.064Z,1.80
2023-01-10T13:05:52.859Z,1.60
2023-01-10T13:08:24.606Z,2.23
2023-01-10T13:10:56.113Z,1.63
2023-01-10T13:13:33.695Z,1.33
2023-01-10T13:16:15.998Z,2.40
2023-01-10T13:19:04.221Z,2.17
2023-01-10T13:21:33.756Z,1.27
2023-01-10T13:24:04.309Z,1.30
2023-01-10T13:26:52.941Z,0.93
2023-01-10T13:29:22.946Z,1.33
2023-01-10T13:31:57.312Z,1.73
2023-01-10T13:34:28.282Z,1.53
2023-01-10T13:36:58.424Z,2.37
2023-01-10T13:39:32.844Z,1.67
2023-01-10T13:42:44.316Z,1.13
2023-01-10T13:45:27.214Z,2.53
2023-01-10T13:48:03.801Z,1.23
2023-01-10T13:51:00.270Z,1.80
2023-01-10T13:53:52.737Z,1.30
2023-01-10T13:56:33.118Z,1.40
2023-01-10T13:59:21.217Z,2.07
2023-01-10T14:02:11.601Z,1.60
2023-01-10T14:04:46.152Z,0.90
2023-01-10T14:07:27.529Z,1.17
2023-01-10T14:10:04.627Z,1.90
2023-01-10T14:12:35.988Z,2.20
2023-01-10T14:15:10.180Z,1.37
2023-01-10T14:17:41.320Z,3.17
2023-01-10T14:20:20.204Z,1.03
2023-01-10T14:23:00.790Z,1.20
2023-01-10T14:25:30.960Z,1.20
2023-01-10T14:27:59.525Z,1.17
2023-01-10T14:30:32.666Z,0.87
2023-01-10T14:33:04.564Z,1.90
2023-01-10T14:35:38.794Z,1.90
2023-01-10T14:38:11.992Z,1.40
2023-01-10T14:40:44.316Z,3.80
2023-01-10T14:43:16.892Z,1.90
2023-01-10T14:45:51.753Z,1.30
2023-01-10T14:48:27.151Z,1.50
2023-01-10T14:51:07.646Z,1.57
2023-01-10T14:53:35.820Z,1.37
2023-01-10T14:56:19.383Z,1.70
2023-01-10T14:58:47.281Z,2.07
2023-01-10T15:01:23.217Z,1.57
2023-01-10T15:03:51.184Z,0.93
2023-01-10T15:06:19.169Z,1.87
2023-01-10T15:08:47.140Z,2.00
2023-01-10T15:11:15.880Z,1.30
2023-01-10T15:13:49.674Z,1.53
2023-01-10T15:18:51.002Z,1.50
2023-01-10T15:21:22.135Z,1.20
2023-01-10T15:23:52.251Z,1.70
2023-01-10T15:26:22.384Z,1.37
2023-01-10T15:29:06.545Z,1.80
2023-01-10T15:31:39.054Z,1.50
2023-01-10T15:34:12.374Z,1.50
2023-01-10T15:36:44.513Z,1.20
2023-01-10T15:39:20.581Z,1.10
2023-01-10T15:41:49.129Z,1.87
2023-01-10T15:44:25.365Z,1.10
2023-01-10T15:46:58.542Z,1.37
2023-01-10T15:49:28.086Z,2.10
2023-01-10T15:51:57.488Z,1.37
2023-01-10T15:54:31.707Z,2.10
2023-01-10T15:57:07.890Z,2.60
2023-01-10T15:59:39.630Z,1.67
2023-01-10T16:02:22.089Z,3.50
2023-01-10T16:04:51.924Z,1.20
2023-01-10T16:07:25.045Z,2.90
2023-01-10T16:09:57.515Z,1.77
2023-01-10T16:12:46.580Z,1.13
2023-01-10T16:15:17.713Z,2.73
2023-01-10T16:17:47.490Z,1.50
2023-01-10T16:20:16.518Z,1.47
2023-01-10T16:22:46.868Z,1.80
2023-01-10T16:25:17.312Z,1.67
2023-01-10T16:27:45.830Z,1.37
2023-01-10T16:30:24.248Z,1.30
2023-01-10T16:32:54.024Z,1.17
2023-01-10T16:35:22.214Z,1.73
2023-01-10T16:37:50.929Z,3.30
2023-01-10T16:40:22.525Z,1.20
2023-01-10T16:43:07.881Z,1.33
2023-01-10T16:45:36.150Z,2.60
2023-01-10T16:48:06.017Z,1.90
2023-01-10T16:50:34.078Z,2.53
2023-01-10T16:53:06.021Z,1.63
2023-01-10T16:55:41.994Z,1.20
2023-01-10T16:58:10.581Z,2.10
2023-01-10T17:00:39.505Z,1.80
2023-01-10T17:03:13.196Z,1.30
2023-01-10T17:05:41.566Z,1.30
2023-01-10T17:08:16.421Z,2.73
2023-01-10T17:10:46.111Z,2.00
2023-01-10T17:13:17.460Z,1.50
2023-01-10T17:15:49.249Z,1.80
2023-01-10T17:18:28.728Z,1.50
2023-01-10T17:20:57.293Z,2.23
2023-01-10T17:23:26.072Z,2.67
2023-01-10T17:25:59.906Z,1.40
2023-01-10T17:28:28.800Z,1.50
2023-01-10T17:30:57.671Z,2.37
2023-01-10T17:33:28.036Z,2.07
2023-01-10T17:35:57.468Z,1.73
2023-01-10T17:38:27.365Z,2.60
2023-01-10T17:41:01.937Z,1.67
2023-01-10T17:43:31.144Z,2.57
2023-01-10T17:46:11.609Z,3.03
2023-01-10T17:58:13.840Z,2.37
2023-01-10T18:01:05.564Z,2.60
2023-01-10T18:03:33.943Z,4.50
2023-01-10T18:09:46.492Z,2.40
2023-01-10T18:12:14.489Z,2.40
2023-01-10T18:14:57.292Z,2.47
2023-01-10T18:17:25.200Z,2.17
2023-01-10T18:19:53.158Z,2.77
2023-01-10T18:22:39.066Z,2.67
2023-01-10T18:25:09.225Z,2.60
2023-01-10T18:27:37.251Z,2.40
2023-01-10T18:30:06.114Z,2.50
2023-01-10T18:32:34.484Z,2.60
2023-01-10T18:35:02.425Z,2.63
2023-01-10T18:37:30.768Z,3.10
2023-01-10T18:40:00.086Z,2.43
2023-01-10T18:42:29.719Z,2.47
2023-01-10T18:44:57.952Z,3.03
2023-01-10T18:47:26.394Z,2.40
2023-01-10T18:49:54.442Z,2.60
2023-01-10T18:52:22.435Z,3.07
2023-01-10T18:54:51.981Z,3.03
2023-01-10T18:57:20.174Z,3.00
2023-01-10T18:59:49.592Z,2.97
2023-01-10T19:02:17.897Z,2.40
2023-01-10T19:04:46.146Z,2.67
2023-01-10T19:07:14.299Z,2.60
2023-01-10T19:09:42.598Z,2.30
2023-01-10T19:12:10.694Z,3.07
2023-01-10T19:14:38.733Z,2.97
2023-01-10T19:17:08.060Z,2.57
2023-01-10T19:19:36.029Z,3.10
2023-01-10T19:22:04.039Z,2.73
2023-01-10T19:24:35.571Z,2.80
2023-01-10T19:27:03.547Z,3.00
2023-01-10T19:29:31.733Z,2.63
2023-01-10T19:32:00.616Z,2.53
2023-01-10T19:34:29.988Z,2.33
2023-01-10T19:36:57.911Z,2.67
2023-01-10T19:39:25.858Z,3.00
2023-01-10T19:41:53.883Z,3.17
2023-01-10T19:44:22.069Z,2.73
2023-01-10T19:46:50.297Z,2.73
2023-01-10T19:49:19.633Z,2.87
2023-01-10T19:51:53.649Z,3.23
2023-01-10T19:54:21.807Z,2.90
2023-01-10T19:56:49.716Z,2.60
2023-01-10T19:59:17.751Z,3.33
2023-01-10T20:01:45.988Z,2.73
2023-01-10T20:04:14.172Z,3.00
2023-01-10T20:06:43.269Z,2.97
2023-01-10T20:09:14.031Z,3.27
2023-01-10T20:11:43.032Z,3.10
2023-01-10T20:14:13.658Z,3.67
2023-01-10T20:16:42.558Z,2.90
2023-01-10T20:19:12.108Z,2.63
2023-01-10T20:21:42.027Z,2.70
2023-01-10T20:24:13.699Z,3.00
2023-01-10T20:26:41.663Z,2.47
2023-01-10T20:29:10.045Z,3.10
2023-01-10T20:31:38.058Z,2.90
2023-01-10T20:34:06.328Z,2.90
2023-01-10T20:36:34.304Z,2.37
2023-01-10T20:39:02.283Z,2.47
2023-01-10T20:41:34.882Z,3.03
2023-01-10T20:44:02.821Z,2.30
2023-01-10T20:46:32.808Z,2.93
2023-01-10T20:49:02.801Z,3.10
2023-01-10T20:51:33.102Z,3.20
2023-01-10T20:54:01.142Z,2.80
2023-01-10T20:56:32.210Z,3.37
2023-01-10T20:59:00.240Z,2.90
2023-01-10T21:01:34.492Z,2.60
2023-01-10T21:04:03.971Z,3.27
2023-01-10T21:06:32.231Z,3.20
2023-01-10T21:09:00.462Z,2.73
2023-01-10T21:11:28.793Z,2.30
2023-01-10T21:13:58.087Z,2.80
2023-01-10T21:16:26.140Z,2.67
2023-01-10T21:18:54.407Z,3.30
2023-01-10T21:21:23.415Z,2.63
2023-01-10T21:23:51.462Z,2.80
2023-01-10T21:26:19.372Z,2.40
2023-01-10T21:28:47.805Z,2.23
2023-01-10T21:31:19.256Z,3.47
2023-01-10T21:33:47.960Z,2.70
2023-01-10T21:36:16.219Z,2.40
2023-01-10T21:38:44.979Z,2.37
2023-01-10T21:41:14.907Z,2.53
2023-01-10T21:43:44.508Z,2.40
2023-01-10T21:46:13.232Z,3.57
2023-01-10T21:48:42.470Z,2.50
2023-01-10T21:51:10.336Z,2.93
2023-01-10T21:53:41.271Z,2.27
2023-01-10T21:56:09.553Z,2.30
2023-01-10T21:58:37.550Z,2.93
2023-01-10T22:01:06.036Z,2.20
2023-01-10T22:03:34.936Z,2.37
2023-01-10T22:06:04.247Z,1.77
2023-01-10T22:08:32.174Z,2.20
2023-01-10T22:11:00.038Z,2.37
2023-01-10T22:13:28.024Z,2.20
2023-01-10T22:15:59.437Z,1.90
2023-01-10T22:18:28.176Z,2.47
2023-01-10T22:20:56.624Z,1.80
2023-01-10T22:23:26.129Z,2.83
2023-01-10T22:26:01.218Z,2.40
2023-01-10T22:28:29.412Z,1.90
2023-01-10T22:30:57.807Z,2.17
2023-01-10T22:33:29.072Z,1.60
2023-01-10T22:35:56.970Z,2.30
2023-01-10T22:38:29.444Z,2.20
2023-01-10T22:40:57.400Z,2.27
2023-01-10T22:43:25.313Z,2.13
2023-01-10T22:45:54.923Z,2.23
2023-01-10T22:48:25.076Z,1.80
2023-01-10T22:50:53.239Z,2.00
2023-01-10T22:53:21.228Z,2.47
2023-01-10T22:55:50.526Z,1.40
2023-01-10T22:58:18.414Z,1.93
2023-01-10T23:00:49.283Z,1.70
2023-01-10T23:03:17.403Z,1.70
2023-01-10T23:05:45.388Z,2.43
2023-01-10T23:08:13.345Z,1.77
2023-01-10T23:10:41.745Z,1.80
2023-01-10T23:13:11.008Z,2.20
2023-01-10T23:15:38.925Z,1.77
2023-01-10T23:18:06.951Z,1.80
2023-01-10T23:20:35.517Z,1.60
2023-01-10T23:23:03.463Z,2.20
2023-01-10T23:25:31.414Z,1.50
2023-01-10T23:27:59.282Z,1.30
2023-01-10T23:30:29.430Z,2.10
2023-01-10T23:32:57.325Z,1.93
2023-01-10T23:35:25.270Z,2.30
2023-01-10T23:37:54.111Z,1.63
2023-01-10T23:40:22.316Z,1.10
2023-01-10T23:42:50.250Z,1.20
2023-01-10T23:45:18.301Z,1.87
2023-01-10T23:47:47.523Z,3.20
2023-01-10T23:50:15.658Z,1.30
2023-01-10T23:52:43.662Z,1.30
2023-01-10T23:55:11.601Z,1.43
2023-01-10T23:57:39.603Z,2.33
